APG2125 RPLL-RCTP
Flight info
| Callsign | APG2125 |
|---|---|
| Flight time | N/A |
| Altitude | 35000 |
| Route | ALPAS2R/06 ALPAS M646 LAO/N0448F370 M646 POTIB Q14 TNN TNN1A |
| Aircraft | A320/M-SDE3FGHIRWY/LB1 |
Departure
| Time | N/A |
|---|---|
| Airport | Ninoy Aquino International Airport (RPLL) |
Arrival
| Time | 2026-05-04 07:54 |
|---|---|
| Airport | Taiwan Taoyuan International Airport (RCTP) |
| Time | Latitude | Longitude | Altitude | Speed | Heading |
|---|---|---|---|---|---|
| 2026-05-04 07:29 | 23.30889 | 120.22698 | 35025 ft | 481 kts | 359° |
| 2026-05-04 07:30 | 23.37579 | 120.23490 | 35034 ft | 482 kts | 359° |
| 2026-05-04 07:30 | 23.43579 | 120.24202 | 35016 ft | 482 kts | 359° |
| 2026-05-04 07:31 | 23.46920 | 120.24599 | 34648 ft | 484 kts | 359° |
| 2026-05-04 07:31 | 23.50270 | 120.24996 | 34092 ft | 485 kts | 359° |
| 2026-05-04 07:33 | 23.73985 | 120.28617 | 29608 ft | 508 kts | 11° |
| 2026-05-04 07:33 | 23.77364 | 120.29785 | 28894 ft | 509 kts | 12° |
| 2026-05-04 07:34 | 23.88294 | 120.33589 | 26717 ft | 514 kts | 12° |
| 2026-05-04 07:34 | 23.91749 | 120.34785 | 26097 ft | 516 kts | 12° |
| 2026-05-04 07:34 | 23.95133 | 120.35955 | 25478 ft | 518 kts | 12° |
| 2026-05-04 07:34 | 23.98576 | 120.37145 | 24824 ft | 519 kts | 12° |
| 2026-05-04 07:35 | 24.01998 | 120.38331 | 24138 ft | 514 kts | 13° |
| 2026-05-04 07:35 | 24.05395 | 120.39511 | 23442 ft | 510 kts | 13° |
| 2026-05-04 07:35 | 24.08764 | 120.40683 | 22630 ft | 504 kts | 13° |
| 2026-05-04 07:35 | 24.12089 | 120.41842 | 21838 ft | 497 kts | 13° |
| 2026-05-04 07:36 | 24.15353 | 120.42981 | 21048 ft | 488 kts | 13° |
| 2026-05-04 07:36 | 24.18566 | 120.44101 | 20263 ft | 483 kts | 12° |
| 2026-05-04 07:38 | 24.39026 | 120.51232 | 15001 ft | 446 kts | 13° |
| 2026-05-04 07:38 | 24.41972 | 120.52262 | 14255 ft | 441 kts | 13° |
| 2026-05-04 07:38 | 24.44842 | 120.53268 | 13453 ft | 426 kts | 13° |
| 2026-05-04 07:38 | 24.47611 | 120.54237 | 12633 ft | 412 kts | 12° |
| 2026-05-04 07:39 | 24.50308 | 120.55178 | 11826 ft | 401 kts | 13° |
| 2026-05-04 07:39 | 24.52936 | 120.56094 | 11033 ft | 390 kts | 13° |
| 2026-05-04 07:39 | 24.55474 | 120.56981 | 10352 ft | 376 kts | 13° |
| 2026-05-04 07:39 | 24.57894 | 120.57833 | 10113 ft | 352 kts | 13° |
| 2026-05-04 07:40 | 24.60138 | 120.58630 | 9987 ft | 327 kts | 12° |
| 2026-05-04 07:40 | 24.62236 | 120.59374 | 10003 ft | 313 kts | 12° |
| 2026-05-04 07:40 | 24.64292 | 120.60093 | 10004 ft | 308 kts | 11° |
| 2026-05-04 07:40 | 24.66314 | 120.60876 | 10026 ft | 309 kts | 20° |
| 2026-05-04 07:41 | 24.68196 | 120.62026 | 9778 ft | 312 kts | 31° |
| 2026-05-04 07:41 | 24.69882 | 120.63560 | 9471 ft | 315 kts | 38° |
| 2026-05-04 07:41 | 24.71529 | 120.65186 | 9145 ft | 318 kts | 39° |
| 2026-05-04 07:41 | 24.73162 | 120.66800 | 8823 ft | 315 kts | 39° |
| 2026-05-04 07:42 | 24.74787 | 120.68403 | 8497 ft | 312 kts | 39° |
| 2026-05-04 07:42 | 24.75856 | 120.69453 | 8283 ft | 310 kts | 39° |
| 2026-05-04 07:42 | 24.77991 | 120.71550 | 7867 ft | 311 kts | 40° |
| 2026-05-04 07:42 | 24.79600 | 120.73129 | 7556 ft | 308 kts | 41° |
| 2026-05-04 07:43 | 24.81186 | 120.74686 | 7247 ft | 304 kts | 41° |
| 2026-05-04 07:43 | 24.82741 | 120.76216 | 6928 ft | 296 kts | 41° |
| 2026-05-04 07:43 | 24.84280 | 120.77730 | 6633 ft | 297 kts | 41° |
| 2026-05-04 07:43 | 24.85807 | 120.79233 | 6316 ft | 292 kts | 42° |
| 2026-05-04 07:44 | 24.87299 | 120.80704 | 5994 ft | 284 kts | 42° |
| 2026-05-04 07:44 | 24.88771 | 120.82156 | 5699 ft | 283 kts | 42° |
| 2026-05-04 07:44 | 24.90229 | 120.83609 | 5403 ft | 280 kts | 46° |
| 2026-05-04 07:44 | 24.91378 | 120.85252 | 5115 ft | 263 kts | 62° |
| 2026-05-04 07:45 | 24.92057 | 120.87046 | 4826 ft | 248 kts | 77° |
| 2026-05-04 07:45 | 24.92344 | 120.88880 | 4537 ft | 238 kts | 84° |
| 2026-05-04 07:45 | 24.92553 | 120.90637 | 4238 ft | 224 kts | 83° |
| 2026-05-04 07:45 | 24.92751 | 120.92286 | 3942 ft | 211 kts | 82° |
| 2026-05-04 07:46 | 24.92940 | 120.93841 | 3657 ft | 199 kts | 81° |
| 2026-05-04 07:46 | 24.93116 | 120.95309 | 3363 ft | 187 kts | 81° |
| 2026-05-04 07:46 | 24.93281 | 120.96685 | 3074 ft | 176 kts | 81° |
| 2026-05-04 07:46 | 24.93438 | 120.97987 | 2773 ft | 168 kts | 79° |
| 2026-05-04 07:47 | 24.93589 | 120.99232 | 2581 ft | 160 kts | 78° |
| 2026-05-04 07:47 | 24.93734 | 121.00437 | 2544 ft | 158 kts | 78° |
| 2026-05-04 07:47 | 24.93878 | 121.01625 | 2543 ft | 155 kts | 78° |
| 2026-05-04 07:49 | 24.95782 | 121.09205 | 2551 ft | 135 kts | 54° |
| 2026-05-04 07:49 | 24.96374 | 121.09995 | 2597 ft | 134 kts | 53° |
| 2026-05-04 07:49 | 24.96977 | 121.10780 | 2559 ft | 135 kts | 51° |
| 2026-05-04 07:50 | 24.97595 | 121.11572 | 2561 ft | 137 kts | 51° |
| 2026-05-04 07:50 | 24.98229 | 121.12381 | 2457 ft | 143 kts | 52° |
| 2026-05-04 07:50 | 24.98893 | 121.13226 | 2297 ft | 147 kts | 51° |
| 2026-05-04 07:50 | 24.99566 | 121.14080 | 2114 ft | 147 kts | 50° |
| 2026-05-04 07:51 | 25.00236 | 121.14928 | 1922 ft | 145 kts | 51° |
| 2026-05-04 07:51 | 25.00875 | 121.15737 | 1733 ft | 133 kts | 51° |
| 2026-05-04 07:51 | 25.01438 | 121.16451 | 1570 ft | 115 kts | 51° |
| 2026-05-04 07:51 | 25.01943 | 121.17092 | 1425 ft | 107 kts | 51° |
| 2026-05-04 07:52 | 25.02430 | 121.17710 | 1296 ft | 106 kts | 51° |
| 2026-05-04 07:52 | 25.02901 | 121.18308 | 1151 ft | 103 kts | 50° |
| 2026-05-04 07:52 | 25.03380 | 121.18915 | 997 ft | 108 kts | 49° |
| 2026-05-04 07:52 | 25.03882 | 121.19554 | 853 ft | 111 kts | 51° |
| 2026-05-04 07:53 | 25.04406 | 121.20212 | 639 ft | 117 kts | 51° |
| 2026-05-04 07:54 | 25.07219 | 121.23706 | 97 ft | 17 kts | 25° |
| 2026-05-04 07:55 | 25.07332 | 121.23750 | 97 ft | 15 kts | 19° |
| 2026-05-04 07:55 | 25.07433 | 121.23788 | 100 ft | 14 kts | 19° |
| 2026-05-04 07:55 | 25.07511 | 121.23846 | 99 ft | 14 kts | 44° |
| 2026-05-04 07:55 | 25.07553 | 121.23896 | 98 ft | 9 kts | 49° |
| 2026-05-04 07:56 | 25.07602 | 121.23960 | 99 ft | 12 kts | 50° |
| 2026-05-04 07:56 | 25.07661 | 121.24036 | 100 ft | 14 kts | 49° |
| 2026-05-04 07:56 | 25.07723 | 121.24113 | 100 ft | 14 kts | 49° |
| 2026-05-04 07:56 | 25.07786 | 121.24192 | 102 ft | 14 kts | 49° |
| 2026-05-04 07:57 | 25.07854 | 121.24279 | 101 ft | 16 kts | 49° |
| 2026-05-04 07:57 | 25.07885 | 121.24318 | 100 ft | 0 kts | 49° |
| 2026-05-04 07:58 | 25.07888 | 121.24323 | 100 ft | 2 kts | 49° |
| 2026-05-04 07:58 | 25.07908 | 121.24348 | 100 ft | 8 kts | 49° |
| 2026-05-04 07:58 | 25.07960 | 121.24413 | 99 ft | 13 kts | 49° |
| 2026-05-04 07:59 | 25.08013 | 121.24475 | 99 ft | 10 kts | 29° |
| 2026-05-04 07:59 | 25.08072 | 121.24442 | 100 ft | 10 kts | 319° |
| 2026-05-04 07:59 | 25.08119 | 121.24398 | 100 ft | 8 kts | 319° |
| 2026-05-04 07:59 | 25.08151 | 121.24355 | 99 ft | 7 kts | 287° |
| 2026-05-04 08:00 | 25.08132 | 121.24308 | 101 ft | 7 kts | 224° |
| 2026-05-04 08:00 | 25.08091 | 121.24264 | 101 ft | 10 kts | 228° |
| 2026-05-04 08:00 | 25.08043 | 121.24203 | 101 ft | 11 kts | 229° |